Date,TemperatureHighF,TemperatureAvgF,TemperatureLowF,DewpointHighF,DewpointAvgF,DewpointLowF,HumidityHigh,HumidityAvg,HumidityLow,PressureMaxIn,PressureMinIn,WindSpeedMaxMPH,WindSpeedAvgMPH,GustSpeedMaxMPH,PrecipitationSumIn
2013-1-1,49.0,46.3,42.4,45.0,38.5,27.6,87,75,49,30.20,29.98,5,0,5,0.57
2013-1-2,50.4,47.1,43.3,45.8,42.1,38.9,89,83,70,30.18,29.92,3,0,4,0.09
2013-1-3,43.3,39.9,31.6,40.3,36.1,25.3,89,86,77,30.34,30.13,3,0,5,0.00
2013-1-4,50.9,36.5,25.9,29.7,24.5,19.5,88,64,38,30.42,30.30,5,0,6,0.00
2013-1-5,46.7,36.5,25.1,33.6,23.6,18.8,83,61,39,30.46,30.30,4,0,5,0.01
2013-1-6,53.6,42.6,34.9,41.7,35.5,28.5,84,76,61,30.31,30.10,7,0,7,0.01
2013-1-7,54.9,39.8,29.6,31.1,27.9,25.2,86,65,35,30.47,30.26,5,0,6,0.00
2013-1-8,51.7,40.6,29.0,39.0,32.8,25.6,88,75,57,30.51,30.41,3,0,4,0.00
2013-1-9,65.8,54.4,45.8,53.1,46.4,38.2,85,75,61,30.50,30.41,3,0,3,0.00
2013-1-10,68.7,56.2,46.9,53.8,48.4,41.6,88,76,56,30.52,30.38,6,0,6,0.04
2013-1-11,54.8,49.2,48.2,51.0,43.4,42.3,87,80,80,30.36,30.19,7,0,7,0.31
2013-1-12,71.7,59.0,49.6,64.3,53.0,43.7,88,81,66,30.21,30.11,5,0,5,0.01
2013-1-13,68.9,60.1,53.9,61.1,54.1,47.5,88,81,76,30.17,30.08,6,0,6,0.00
2013-1-14,65.0,61.4,57.5,61.0,55.7,50.7,88,82,78,30.15,30.07,4,0,6,0.37
2013-1-15,60.9,51.3,43.3,55.0,46.2,39.1,88,83,78,30.16,30.07,8,0,8,0.20
2013-1-16,50.1,46.2,42.4,45.9,41.2,37.5,86,83,81,30.09,30.01,3,0,3,0.44
2013-1-17,50.9,46.2,35.4,45.4,41.5,31.2,90,84,81,30.26,29.76,10,0,10,2.34
2013-1-18,54.4,39.1,29.3,31.3,26.7,21.0,91,65,31,30.55,30.26,4,0,4,0.01
2013-1-19,54.4,37.3,24.9,30.5,25.6,21.1,90,67,29,30.55,30.25,6,0,6,0.00
2013-1-20,64.4,46.3,34.0,36.8,30.1,26.0,75,55,33,30.25,30.08,7,0,7,0.00
2013-1-21,61.7,43.6,29.3,35.4,26.3,15.3,89,55,28,30.13,30.00,14,1,14,0.00
2013-1-22,47.0,35.6,25.9,17.5,13.3,7.8,55,41,21,30.32,30.07,10,1,10,0.00
2013-1-23,50.7,35.2,22.2,27.5,17.7,8.9,67,50,34,30.41,30.16,8,1,8,0.00
2013-1-24,54.9,42.6,26.0,33.7,18.4,1.7,73,40,19,30.53,30.07,10,1,13,0.00
2013-1-25,27.8,24.7,22.2,24.2,14.6,4.8,89,67,40,30.55,30.19,4,0,4,0.00
2013-1-26,54.8,35.9,24.4,37.6,27.6,21.0,90,74,39,30.40,30.18,2,0,3,0.06
2013-1-27,46.9,36.0,27.3,31.2,28.0,24.5,89,74,53,30.61,30.39,4,0,6,0.00
2013-1-28,50.4,43.1,38.5,42.6,34.8,27.9,88,73,63,30.53,30.32,5,0,5,0.00
2013-1-29,68.9,56.0,39.3,57.9,49.9,34.5,88,80,66,30.33,30.04,6,0,6,0.00
2013-1-30,68.2,60.8,44.6,61.2,56.0,41.3,89,84,76,30.05,29.49,13,3,21,1.57
2013-1-31,47.9,40.1,32.7,41.5,25.0,17.2,89,57,30,30.14,29.63,13,2,13,0.01
2013-2-1,48.6,36.6,23.8,27.1,15.2,1.9,71,44,17,30.42,30.03,9,1,11,0.00
2013-2-2,44.1,31.0,19.5,33.0,17.7,7.5,89,61,24,30.44,30.13,6,1,6,0.06
2013-2-3,53.1,40.4,29.7,35.6,28.0,19.8,90,64,29,30.13,29.95,11,1,12,0.00
2013-2-4,49.2,36.3,25.8,27.5,23.5,19.4,80,61,36,30.20,30.08,3,0,4,0.00
2013-2-5,61.5,45.0,30.3,43.8,35.3,26.4,88,71,45,30.08,29.97,10,1,11,0.00
2013-2-6,69.4,50.1,36.0,40.8,31.3,20.0,89,56,18,30.23,30.05,6,0,6,0.00
2013-2-7,45.1,42.2,39.2,37.7,31.5,24.1,88,68,44,30.26,30.02,5,0,7,0.59
2013-2-8,58.9,45.4,36.9,47.1,37.0,23.9,89,74,42,30.17,29.95,8,1,8,0.00
2013-2-9,62.7,45.7,35.0,28.4,21.7,14.9,71,41,20,30.37,30.15,5,0,5,0.00
2013-2-10,57.8,45.1,37.3,42.5,31.2,22.8,88,60,31,30.46,30.21,5,0,5,0.51
2013-2-11,54.3,49.4,43.1,50.7,44.7,38.7,88,84,80,30.22,30.01,6,0,6,0.14
2013-2-12,59.5,48.7,41.1,45.6,37.1,23.8,90,69,26,30.15,29.94,4,0,5,0.17
2013-2-13,48.6,42.5,34.9,44.1,38.8,31.5,89,87,81,29.94,29.73,8,0,10,0.04
2013-2-14,52.7,39.3,29.5,35.0,31.2,26.9,90,74,45,30.13,29.94,7,0,7,0.00
2013-2-15,62.1,45.1,29.2,39.3,31.3,25.9,89,63,32,30.16,29.99,7,1,7,0.00
2013-2-16,44.3,35.0,24.7,32.2,26.1,13.5,89,70,48,30.11,29.89,7,0,8,0.05
2013-2-17,46.5,31.5,19.2,16.3,9.0,1.3,72,42,16,30.34,30.11,11,1,13,0.01
2013-2-18,56.2,38.5,22.5,24.1,19.8,11.8,82,50,26,30.44,30.27,6,1,7,0.00
2013-2-19,51.9,40.7,34.9,43.2,30.0,13.4,89,68,31,30.27,29.96,9,1,11,0.27
2013-2-20,56.0,40.6,24.5,22.0,16.1,10.5,74,39,18,30.19,30.10,4,0,6,0.00
2013-2-21,61.8,43.9,29.5,37.0,18.3,9.8,78,38,18,30.28,30.11,6,0,8,0.02
2013-2-22,42.7,37.4,36.2,36.0,34.0,32.3,89,87,76,30.31,30.14,5,0,5,0.43
2013-2-23,44.0,39.6,36.0,41.0,35.8,31.9,89,86,82,30.19,29.91,3,0,3,0.40
2013-2-24,69.3,49.7,39.5,45.3,36.1,27.1,90,63,30,30.04,29.92,6,0,6,0.00
2013-2-25,45.0,40.8,33.5,30.1,26.7,24.3,86,57,51,30.18,30.03,10,1,11,0.00
2013-2-26,40.5,35.3,30.5,36.8,31.8,27.4,90,87,83,30.08,29.66,15,1,15,1.26
2013-2-27,56.9,45.2,33.5,37.3,33.6,30.1,88,66,44,29.88,29.74,11,2,11,0.00
2013-2-28,50.0,41.1,31.8,33.7,26.1,23.0,72,56,38,29.97,29.79,11,2,14,0.00
2013-3-1,50.5,38.0,24.4,29.2,25.8,21.0,89,63,41,30.01,29.91,5,0,7,0.00
2013-3-2,45.2,37.1,29.5,34.6,29.4,19.6,89,74,61,30.01,29.90,5,0,6,0.04
2013-3-3,48.9,33.1,22.6,21.5,18.0,14.6,82,56,29,30.09,29.97,6,0,7,0.00
2013-3-4,55.9,38.2,21.4,26.1,17.6,13.6,77,47,20,30.24,30.09,7,0,8,0.00
2013-3-5,56.6,43.7,36.1,44.6,36.1,24.2,89,75,52,30.14,29.70,10,0,14,0.49
2013-3-6,52.7,37.7,29.6,31.3,24.5,17.7,81,60,34,30.18,29.75,11,1,12,0.00
2013-3-7,59.6,36.1,25.6,30.9,25.0,22.3,88,67,31,30.30,30.18,4,0,10,0.00
2013-3-8,65.9,43.9,26.5,26.7,20.4,10.6,82,46,13,30.38,30.24,5,0,7,0.00
2013-3-9,66.0,47.3,32.2,31.9,26.4,20.8,69,47,23,30.41,30.27,5,0,6,0.00
2013-3-10,68.7,52.2,38.5,36.8,33.4,28.6,74,51,29,30.33,30.19,6,0,6,0.00
2013-3-11,65.8,54.0,45.4,51.8,45.2,35.5,87,73,55,30.20,29.85,10,1,12,0.72
2013-3-12,72.6,56.3,43.5,50.1,44.1,30.1,88,67,30,30.04,29.78,6,1,7,0.12
2013-3-13,58.4,44.2,33.2,31.9,24.7,17.1,82,50,22,30.23,30.04,13,1,14,0.00
2013-3-14,53.4,39.1,27.6,23.5,17.5,11.6,63,43,24,30.37,30.22,7,1,10,0.00
2013-3-15,71.3,50.2,28.2,40.8,30.2,17.0,76,48,28,30.26,29.97,11,1,11,0.00
2013-3-16,77.3,63.8,52.3,48.0,42.4,38.7,63,47,31,29.98,29.80,12,2,13,0.00
2013-3-17,76.2,62.4,48.4,50.2,44.5,38.4,73,53,36,30.07,29.89,9,1,11,0.00
2013-3-18,48.3,40.6,38.2,40.0,36.3,34.8,88,85,73,30.13,29.93,12,1,12,0.90
2013-3-19,68.4,50.9,40.2,47.0,30.6,17.2,89,54,15,30.10,29.92,15,1,15,0.00
2013-3-20,59.6,47.3,39.2,23.0,15.9,10.1,49,29,19,30.16,29.86,6,1,9,0.00
2013-3-21,51.9,39.4,27.5,25.7,14.1,4.4,71,38,17,30.01,29.86,11,1,11,0.00
2013-3-22,47.4,36.7,24.6,26.1,17.5,12.1,72,47,31,30.15,30.01,8,0,8,0.00
2013-3-23,49.4,42.7,38.4,44.4,36.6,26.0,88,79,56,30.10,29.93,3,0,3,0.12
2013-3-24,43.2,41.5,39.3,39.7,37.8,35.1,89,87,83,29.95,29.61,9,1,11,1.23
2013-3-25,43.2,37.7,31.5,36.9,25.2,19.5,89,62,41,30.01,29.62,12,2,16,0.01
2013-3-26,52.9,36.9,26.2,26.3,22.1,19.7,81,57,29,30.27,30.00,9,1,9,0.00
2013-3-27,57.7,40.1,25.3,25.0,22.4,18.6,85,54,24,30.35,30.22,7,0,7,0.00
2013-3-28,63.6,43.4,26.7,27.0,22.2,17.3,84,48,18,30.38,30.22,8,0,8,0.00
2013-3-29,60.8,45.0,28.5,38.7,27.3,18.8,82,53,23,30.40,30.26,9,0,9,0.00
2013-3-30,68.5,53.8,42.5,44.7,39.6,36.8,86,62,34,30.27,30.07,5,0,5,0.00
2013-3-31,68.1,57.1,49.2,55.6,49.7,43.8,88,77,57,30.09,29.87,9,1,9,0.66
2013-4-1,73.1,61.3,50.6,52.6,42.3,32.8,88,55,24,30.00,29.87,10,1,15,0.01
2013-4-2,70.2,56.4,41.6,35.0,30.1,19.2,70,39,17,30.17,30.00,8,1,8,0.00
2013-4-3,59.7,52.3,45.9,30.6,23.9,16.0,45,33,24,30.29,30.13,9,1,13,0.00
2013-4-4,51.1,41.1,34.8,33.2,30.1,23.6,89,68,40,30.27,30.03,7,1,8,0.59
2013-4-5,70.4,49.1,33.9,44.8,35.7,26.2,89,64,23,30.11,29.97,7,0,7,0.00
2013-4-6,72.9,57.1,41.9,40.2,34.0,29.0,73,45,21,30.25,30.11,8,0,8,0.00
2013-4-7,73.5,58.3,41.7,47.2,42.4,32.0,83,57,33,30.27,30.13,9,1,9,0.00
2013-4-8,77.0,63.2,50.8,56.1,50.4,45.5,87,65,41,30.20,30.08,5,1,7,0.00
2013-4-9,82.5,67.6,52.4,58.0,53.1,48.6,87,62,38,30.22,30.12,5,0,8,0.00
2013-4-10,86.3,70.8,57.5,59.8,56.2,53.0,87,62,38,30.13,29.96,7,1,7,0.00
2013-4-11,81.9,67.2,56.5,63.6,58.5,51.5,87,75,48,29.99,29.73,7,0,7,0.18
2013-4-12,78.2,67.1,57.1,62.2,49.9,34.4,87,59,26,29.85,29.67,9,0,11,1.15
2013-4-13,80.8,61.9,42.9,44.0,38.8,34.8,85,47,21,30.04,29.85,4,0,4,0.00
2013-4-14,70.0,60.5,50.5,51.9,43.3,34.5,86,55,34,30.10,29.98,2,0,3,0.02
2013-4-15,72.7,60.5,53.5,59.9,53.3,48.1,87,78,59,30.22,29.99,1,0,4,0.23
2013-4-16,79.6,66.5,57.7,61.0,56.8,53.7,87,73,49,30.31,30.19,1,0,1,0.00
2013-4-17,86.2,66.4,58.8,64.0,58.1,54.1,87,76,45,30.25,30.12,2,0,2,0.92
2013-4-18,80.0,67.0,58.1,62.7,57.5,51.3,87,73,46,30.17,29.98,1,0,1,0.00
2013-4-19,70.1,60.9,47.0,63.4,56.3,43.0,88,85,78,29.98,29.79,5,0,6,0.71
2013-4-20,67.6,52.2,36.6,43.1,34.7,27.8,89,56,26,30.30,29.96,0,0,0,0.00
2013-4-21,68.3,53.9,42.0,39.8,35.5,30.4,72,51,30,30.45,30.30,5,0,5,0.00
2013-4-22,67.0,53.5,43.2,40.7,37.3,33.3,79,56,34,30.43,30.24,3,0,3,0.00
2013-4-23,75.6,57.9,41.6,49.7,41.4,32.6,74,56,35,30.31,30.13,2,0,2,0.00
2013-4-24,73.5,59.6,47.1,58.3,51.5,42.7,87,76,53,30.17,30.05,6,0,6,0.00
2013-4-25,78.4,62.7,48.8,55.4,42.7,28.0,87,52,23,30.30,30.09,1,0,2,0.00
2013-4-26,77.8,60.4,45.1,44.9,35.9,28.9,63,42,24,30.45,30.30,2,0,9,0.00
2013-4-27,61.4,55.1,52.0,55.1,48.5,41.2,87,79,55,30.38,30.27,1,0,2,0.37
2013-4-28,52.6,51.5,50.0,47.0,45.9,44.4,83,81,80,30.29,30.08,3,0,4,2.04
2013-4-29,74.3,59.9,52.0,61.7,52.7,46.0,88,78,59,30.11,29.96,3,0,6,0.09
2013-4-30,77.3,63.3,52.5,64.0,55.1,46.5,87,75,55,30.18,30.00,3,0,3,0.00
2013-5-1,67.3,60.4,54.0,55.9,53.4,50.2,88,78,62,30.28,30.18,3,0,3,0.00
2013-5-2,59.4,56.7,54.6,55.4,52.3,49.0,88,85,80,30.30,30.24,1,0,3,0.03
2013-5-3,63.0,57.0,53.8,56.2,51.9,49.0,88,83,69,30.24,30.09,3,0,4,0.02
2013-5-4,56.6,51.8,48.6,51.6,46.2,41.3,88,81,67,30.10,29.96,3,0,5,0.87
2013-5-5,51.6,50.2,47.4,47.2,44.8,42.2,85,82,81,30.00,29.85,6,0,10,2.54
2013-5-6,68.2,55.7,47.1,51.5,47.5,43.3,89,75,51,29.95,29.84,4,0,4,0.01
2013-5-7,71.7,56.2,43.6,54.6,46.7,39.2,89,73,45,29.99,29.90,3,0,5,0.57
2013-5-8,77.0,61.9,48.7,58.4,51.7,43.1,89,71,48,30.06,29.96,3,0,4,0.00
2013-5-9,86.5,68.6,52.8,57.9,54.3,49.3,88,64,32,30.11,30.03,7,0,7,0.00
2013-5-10,82.5,69.0,55.6,63.0,58.0,50.7,88,70,45,30.10,29.97,5,0,5,0.00
2013-5-11,75.4,67.6,58.5,63.9,59.4,54.7,87,76,60,29.99,29.84,4,0,5,0.04
2013-5-12,76.7,63.4,50.2,56.8,44.2,26.4,88,55,18,30.08,29.88,4,0,4,0.00
2013-5-13,73.5,57.9,41.9,40.2,34.2,29.1,76,44,23,30.22,30.08,3,0,3,0.00
2013-5-14,75.7,61.0,41.2,50.4,42.0,32.1,86,53,29,30.29,30.12,5,0,5,0.00
2013-5-15,90.7,73.3,57.3,62.4,56.0,49.7,84,57,34,30.13,29.96,5,0,5,0.00
2013-5-16,79.6,70.6,60.7,62.3,57.7,53.4,81,64,45,30.05,29.98,4,0,5,0.00
2013-5-17,87.6,71.5,58.5,64.4,59.0,54.7,87,67,37,30.11,30.03,4,0,4,0.00
2013-5-18,73.0,66.7,63.0,67.3,61.0,56.1,87,82,75,30.15,30.06,2,0,3,0.62
2013-5-19,74.7,68.0,64.0,66.8,61.9,57.6,87,81,72,30.13,30.03,2,0,2,0.22
2013-5-20,84.6,71.6,62.6,68.8,62.7,56.0,87,74,55,30.13,30.03,2,0,2,0.00
2013-5-21,90.3,74.0,64.3,71.5,64.5,57.8,87,74,46,30.06,29.94,2,0,3,0.00
2013-5-22,87.0,72.5,61.0,71.0,63.4,55.2,87,74,54,30.04,29.86,3,0,5,0.71
2013-5-23,82.0,70.0,61.2,69.0,59.1,53.2,87,70,49,29.98,29.84,3,0,4,0.34
2013-5-24,79.1,67.1,55.9,57.7,48.2,36.0,88,54,28,30.23,29.91,0,0,1,0.00
2013-5-25,79.0,64.1,48.2,50.5,43.5,36.2,72,49,26,30.33,30.19,3,0,3,0.00
2013-5-26,76.8,63.6,55.1,52.6,46.7,41.0,75,55,31,30.32,30.19,2,0,2,0.00
2013-5-27,86.2,70.3,53.4,59.7,55.3,49.7,88,62,35,30.29,30.15,2,0,3,0.00
2013-5-28,88.3,72.2,61.1,63.7,60.2,57.2,87,68,39,30.25,30.15,3,0,3,0.00
2013-5-29,87.7,73.4,60.0,65.0,60.5,56.1,87,66,44,30.26,30.16,3,0,3,0.00
2013-5-30,86.7,73.2,61.2,64.9,61.0,57.1,87,68,43,30.29,30.17,3,0,4,0.00
2013-5-31,88.3,75.2,64.1,67.6,63.5,60.2,87,69,47,30.24,30.11,3,0,4,0.00
2013-6-1,85.7,75.6,66.5,66.2,64.1,62.0,86,69,48,30.15,30.01,4,0,4,0.00
2013-6-2,73.4,69.5,64.5,68.3,63.6,58.2,87,81,74,30.05,29.92,2,0,3,1.14
2013-6-3,81.8,71.0,63.3,70.9,63.4,57.0,87,77,57,29.97,29.87,2,0,3,0.00
2013-6-4,87.4,74.6,64.1,69.9,64.5,59.2,87,72,50,30.06,29.95,3,0,3,0.00
2013-6-5,80.5,70.6,65.3,70.6,64.4,59.1,87,81,69,30.09,29.97,3,0,4,2.57
2013-6-6,73.6,67.3,62.9,69.0,61.5,56.4,87,82,78,30.01,29.82,2,0,4,1.05
2013-6-7,81.9,69.6,65.3,72.1,63.2,58.6,87,80,69,29.85,29.69,3,0,4,1.05
2013-6-8,84.9,72.6,64.9,70.0,64.0,58.1,88,75,56,30.10,29.84,3,0,3,0.00
2013-6-9,86.0,71.4,66.2,71.6,64.6,60.5,87,80,59,30.15,30.05,5,0,6,1.30
2013-6-10,76.2,69.8,66.0,70.3,64.1,60.9,88,82,78,30.08,29.94,5,0,5,0.35
2013-6-11,88.5,76.5,66.0,72.1,65.8,60.2,88,71,47,30.03,29.93,3,0,4,0.39
2013-6-12,92.0,79.1,65.5,75.9,69.0,61.9,88,73,49,30.03,29.92,2,0,2,0.00
2013-6-13,93.2,77.9,67.7,73.0,68.6,62.2,87,75,47,29.93,29.71,6,0,6,0.20
2013-6-14,87.7,73.5,60.3,62.7,58.3,53.3,89,62,33,30.05,29.80,1,0,2,0.00
2013-6-15,86.5,73.0,58.7,63.9,58.5,54.2,87,62,40,30.16,30.05,2,0,3,0.00
2013-6-16,85.3,74.2,62.0,69.0,63.4,58.1,88,71,49,30.17,30.03,4,0,4,0.00
2013-6-17,84.4,73.6,67.1,73.1,67.3,61.0,88,81,66,30.07,29.94,3,0,3,0.39
2013-6-18,82.8,72.5,68.5,72.5,66.9,62.9,88,83,66,29.98,29.80,4,0,4,0.49
2013-6-19,83.3,72.1,64.6,70.1,63.9,59.4,89,76,58,30.12,29.92,4,0,4,0.00
2013-6-20,85.0,72.2,63.8,69.6,64.0,59.5,88,76,55,30.23,30.11,1,0,2,0.00
2013-6-21,84.7,73.8,62.6,67.5,62.6,58.8,88,70,49,30.28,30.17,1,0,1,0.00
2013-6-22,89.3,72.7,61.6,66.5,61.9,58.0,88,71,41,30.24,30.12,1,0,2,0.00
2013-6-23,89.0,75.4,66.9,76.4,68.2,61.9,88,79,57,30.22,30.11,2,0,3,0.56
2013-6-24,89.7,76.3,67.1,73.7,67.5,61.1,88,75,56,30.23,30.10,3,0,3,0.13
2013-6-25,92.5,77.8,68.6,72.1,68.1,63.3,88,74,48,30.17,30.03,3,0,3,0.00
2013-6-26,92.7,76.0,69.3,74.5,69.2,64.3,88,81,52,30.06,29.92,3,0,4,0.15
2013-6-27,88.0,77.1,67.5,76.0,69.1,62.1,88,77,63,29.98,29.73,4,0,5,0.28
2013-6-28,93.0,77.4,68.5,72.9,68.8,64.8,88,76,49,29.80,29.62,4,0,4,0.00
2013-6-29,90.0,76.1,68.4,72.6,66.7,62.8,88,75,47,29.72,29.63,3,0,3,0.00
2013-6-30,85.8,73.5,67.5,72.1,67.3,63.8,88,82,55,29.84,29.71,3,0,3,0.00
2013-7-1,83.7,72.4,66.5,72.3,66.1,60.8,88,81,64,29.97,29.82,2,0,3,0.53
2013-7-2,79.2,72.3,67.5,73.7,66.7,61.6,88,83,75,30.14,29.97,2,0,5,1.82
2013-7-3,81.8,71.5,65.4,72.9,66.1,59.8,88,83,72,30.23,30.12,2,0,3,1.05
2013-7-4,78.4,68.8,64.6,74.2,63.4,58.9,88,83,80,30.24,30.14,3,0,3,2.86
2013-7-5,87.6,72.5,67.1,73.2,65.6,61.1,88,79,58,30.26,30.17,2,0,2,0.63
2013-7-6,89.8,74.6,69.5,74.7,67.9,63.4,88,80,55,30.24,30.11,3,0,4,0.38
2013-7-7,85.8,75.2,70.2,73.4,68.4,64.8,88,80,64,30.18,30.08,3,0,3,0.04
2013-7-8,89.8,75.6,69.1,74.5,67.9,63.1,89,78,55,30.21,30.11,3,0,6,0.68
2013-7-9,89.9,76.5,68.6,76.5,69.0,62.9,89,78,60,30.20,30.06,2,0,8,0.01
2013-7-10,83.7,73.1,67.8,75.1,67.4,62.0,89,83,72,30.16,29.96,4,0,4,0.71
2013-7-11,78.6,73.6,70.6,74.2,68.5,64.6,89,84,81,29.99,29.89,2,0,2,0.21
2013-7-12,89.7,70.5,63.4,74.5,65.2,59.3,89,84,61,30.01,29.87,2,0,3,0.53
2013-7-13,76.6,69.4,63.2,70.7,65.1,59.3,89,86,80,30.12,30.00,2,0,2,0.01
2013-7-14,76.0,71.6,68.4,72.3,67.4,63.5,89,87,82,30.28,30.11,4,0,4,0.46
2013-7-15,87.0,74.0,67.9,74.5,67.5,62.5,89,80,62,30.35,30.25,1,0,3,0.06
2013-7-16,93.6,79.6,69.1,75.9,69.4,63.4,89,72,50,30.33,30.23,2,0,2,0.00
2013-7-17,92.3,78.0,66.4,76.5,69.5,62.3,89,77,55,30.26,30.13,2,0,3,0.50
2013-7-18,91.9,74.1,67.1,76.6,67.0,61.8,89,79,54,30.22,30.07,2,0,2,0.00
2013-7-19,90.3,76.4,70.3,74.8,70.0,65.1,89,81,55,30.13,29.99,2,0,3,0.00
2013-7-20,85.8,74.4,70.9,75.0,69.2,65.8,89,84,65,30.05,29.95,3,0,3,0.66
2013-7-21,90.7,74.3,69.3,76.6,68.1,63.9,89,81,60,30.03,29.93,3,0,3,1.39
2013-7-22,85.8,74.5,68.5,75.8,67.8,63.1,89,80,65,30.03,29.87,3,0,5,0.06
2013-7-23,90.5,77.2,67.3,73.0,68.7,63.0,89,76,49,29.91,29.80,4,0,4,0.00
2013-7-24,93.5,77.4,68.7,74.5,69.0,64.0,89,77,46,29.84,29.77,2,0,4,0.00
2013-7-25,87.9,74.4,65.7,71.8,66.7,60.3,89,78,54,30.03,29.84,3,0,3,0.03
2013-7-26,88.4,74.6,65.2,73.2,66.8,60.7,89,78,56,30.11,30.00,3,0,3,0.00
2013-7-27,81.3,73.8,69.1,73.4,68.8,64.1,89,84,74,30.03,29.90,3,0,3,1.01
2013-7-28,87.5,74.4,65.9,73.2,66.5,60.7,89,78,54,30.03,29.92,3,0,4,0.00
2013-7-29,87.1,75.2,64.7,69.3,65.5,60.5,89,73,48,30.17,30.02,3,0,3,0.00
2013-7-30,85.1,75.3,65.0,72.2,66.4,59.1,87,75,59,30.22,30.13,2,0,2,0.00
2013-7-31,83.1,73.4,69.6,74.0,68.6,65.9,89,85,71,30.17,29.98,2,0,2,0.13
2013-8-1,91.3,74.3,69.8,75.4,69.0,65.5,89,84,58,30.01,29.91,2,0,3,0.23
2013-8-2,89.5,76.3,66.4,72.3,67.7,61.5,89,76,54,30.05,29.94,1,0,2,0.00
2013-8-3,88.5,77.6,69.8,72.9,68.7,64.3,89,76,48,30.04,29.96,2,0,3,0.00
2013-8-4,92.2,78.8,69.5,74.2,68.2,60.9,89,72,50,30.03,29.95,3,0,3,0.00
2013-8-5,84.7,75.9,68.7,71.9,66.8,61.3,85,74,62,30.08,29.98,2,0,3,0.00
2013-8-6,84.2,73.2,67.6,75.5,67.8,62.8,89,84,68,30.07,29.96,3,0,3,2.48
2013-8-7,77.4,72.1,69.6,73.6,67.6,64.3,89,86,83,30.09,30.02,1,0,2,0.33
2013-8-8,80.8,74.6,70.3,73.7,68.8,64.9,89,82,73,30.10,30.02,2,0,2,0.00
2013-8-9,88.1,74.8,70.6,77.0,69.6,65.2,89,84,64,30.10,30.03,2,0,3,0.00
2013-8-10,93.3,78.7,72.3,76.8,70.9,66.9,89,78,55,30.12,30.05,3,0,4,0.00
2013-8-11,92.8,76.0,68.8,76.6,69.3,63.9,89,81,55,30.15,30.07,3,0,3,0.72
2013-8-12,92.9,78.3,69.4,77.3,70.4,64.0,90,78,56,30.11,29.96,3,0,3,0.00
2013-8-13,89.6,77.5,70.2,75.3,70.4,65.2,89,79,60,29.99,29.83,3,0,3,0.00
2013-8-14,79.8,72.4,69.1,67.6,64.9,59.3,89,78,64,30.08,29.87,8,0,8,0.00
2013-8-15,71.1,66.9,62.5,61.0,58.6,55.5,87,75,60,30.16,30.06,8,1,8,0.00
2013-8-16,68.9,63.4,59.4,61.8,58.8,55.6,90,85,77,30.19,30.10,6,0,6,0.29
2013-8-17,66.1,62.8,60.4,61.7,58.8,57.2,90,87,83,30.21,30.15,5,1,6,0.11
2013-8-18,74.8,67.3,62.5,68.8,62.7,57.9,89,85,80,30.26,30.17,2,0,4,0.36
2013-8-19,75.8,69.4,65.3,69.2,64.6,60.5,90,85,76,30.23,30.10,4,0,4,1.21
2013-8-20,78.3,71.1,67.1,70.0,66.3,62.5,90,85,74,30.21,30.13,2,0,3,0.00
2013-8-21,78.0,71.7,68.4,71.9,67.5,63.4,89,87,80,30.25,30.14,2,0,2,0.41
2013-8-22,76.7,70.6,67.6,72.9,66.3,62.7,89,86,84,30.19,30.05,2,0,3,0.19
2013-8-23,71.5,68.9,67.9,67.8,64.1,62.9,88,85,84,30.08,30.02,1,0,2,0.00
2013-8-25,81.0,69.6,59.0,61.9,59.6,55.9,90,71,47,30.41,30.29,0,0,0,0.00
2013-8-26,83.2,66.4,58.8,63.8,59.0,55.6,90,79,49,30.35,30.17,0,0,0,0.00
2013-8-27,90.8,78.4,62.5,69.1,66.3,58.6,90,68,40,30.18,30.03,0,0,0,0.00
2013-8-28,89.0,77.0,66.9,72.3,68.4,63.6,90,76,52,30.06,29.95,0,0,0,0.00
2013-8-29,92.1,78.8,68.6,76.4,70.6,65.2,89,77,53,29.98,29.89,1,0,1,0.00
2013-8-30,78.6,73.1,70.5,71.4,68.8,66.9,89,86,75,30.06,29.96,4,0,5,0.36
2013-9-2,83.0,77.2,72.9,72.4,70.7,68.6,87,81,68,29.88,29.83,1,0,1,0.00
2013-9-3,90.7,74.8,64.4,71.0,66.8,60.4,90,78,48,29.98,29.85,5,0,5,0.29
2013-9-4,88.0,76.9,66.6,69.5,65.7,62.5,89,70,49,30.11,29.98,5,0,6,0.00
2013-9-5,80.0,69.0,65.8,69.3,65.0,62.3,90,87,70,30.14,30.07,2,0,2,0.00
2013-9-6,84.9,72.4,63.3,64.5,61.3,58.8,87,70,46,30.19,30.08,2,0,10,0.00
2013-9-7,85.2,71.8,62.3,66.7,62.9,59.3,90,75,52,30.16,30.01,1,0,4,0.00
2013-9-8,87.7,70.9,62.7,69.4,63.5,58.8,90,79,49,30.02,29.97,2,0,4,0.00
2013-9-9,88.7,74.1,66.7,70.1,66.3,63.4,89,78,53,30.12,30.01,3,0,7,0.00
2013-9-10,90.3,75.4,65.8,71.1,66.8,62.2,89,76,50,30.25,30.15,0,0,3,0.00
2013-9-11,84.0,71.9,65.8,68.6,65.7,61.8,90,82,60,30.24,30.19,0,0,1,0.00
2013-9-12,91.6,74.2,66.6,70.3,67.3,63.1,90,80,50,30.11,29.89,1,0,9,0.01
2013-9-13,85.1,73.7,65.5,67.5,61.3,52.2,90,68,39,29.90,29.80,2,0,6,0.00
2013-9-14,80.3,66.9,56.3,57.6,52.6,49.2,79,61,43,30.07,29.91,4,0,7,0.00
2013-9-15,78.7,67.6,59.4,65.3,59.9,54.7,87,77,61,30.23,30.12,1,0,5,0.00
2013-9-16,89.0,73.1,63.7,67.2,62.9,60.4,90,73,45,30.16,30.07,1,0,4,0.00
2013-9-17,71.3,67.4,63.4,60.5,57.4,55.3,78,71,64,30.31,30.16,4,1,8,0.01
2013-9-18,73.5,65.5,58.9,59.8,56.8,52.8,86,74,59,30.31,30.18,3,0,7,0.00
2013-9-19,86.1,69.4,58.3,65.6,60.7,54.8,90,75,49,30.21,30.10,0,0,1,0.00
2013-9-20,66.9,64.0,62.4,62.2,60.5,59.1,89,88,87,30.11,30.08,0,0,0,0.00
2013-10-1,83.7,65.5,55.0,60.2,56.2,51.5,90,74,41,30.18,30.08,1,0,4,0.00
2013-10-2,83.4,68.1,57.9,63.8,59.7,55.0,90,76,50,30.18,30.09,1,0,6,0.00
2013-10-3,86.5,69.4,58.6,63.8,60.4,55.3,90,75,43,30.16,30.08,1,0,5,0.00
2013-10-4,87.5,70.1,58.6,65.4,61.1,55.1,90,75,46,30.18,30.10,1,0,4,0.00
2013-10-5,88.7,71.4,60.7,65.9,62.1,57.1,90,75,44,30.16,30.05,1,0,4,0.00
2013-10-6,83.8,69.8,60.9,67.0,62.5,57.2,90,79,56,30.07,29.90,0,0,0,0.00
2013-10-7,73.6,66.9,58.7,67.6,61.1,51.4,89,82,69,30.00,29.83,0,0,0,1.02
2013-10-8,69.5,60.7,56.0,53.6,49.8,45.5,84,68,54,30.22,30.00,5,1,16,0.00
2013-10-9,58.5,54.3,52.0,45.2,43.8,42.8,73,68,62,30.22,30.19,2,1,6,0.00
2013-10-10,81.9,61.2,46.7,55.7,50.6,43.9,90,71,38,30.17,30.02,1,0,5,0.00
2013-10-11,81.9,65.6,55.1,59.0,53.7,50.0,87,68,36,30.05,29.95,1,0,6,0.00
2013-10-12,79.9,65.5,55.0,62.3,56.8,52.1,90,75,46,30.11,29.99,0,0,0,0.00
2013-10-13,74.1,66.4,62.2,63.7,60.5,58.4,90,82,69,30.23,30.11,1,0,8,0.00
2013-10-14,67.1,63.7,61.4,60.7,59.1,57.3,89,85,78,30.25,30.17,1,0,8,0.00
2013-10-15,69.2,60.8,56.3,58.5,56.0,53.4,90,84,67,30.22,30.09,1,0,7,0.00
2013-10-16,71.5,61.2,52.8,58.4,54.6,49.8,90,80,59,30.11,30.00,1,0,4,0.00
2013-10-17,64.8,61.8,59.3,60.7,58.2,56.2,90,88,85,30.01,29.90,0,0,3,0.33
2013-10-18,69.6,60.2,51.2,59.2,55.1,47.5,90,84,66,30.05,29.93,1,0,7,0.00
2013-10-19,60.9,58.9,52.2,56.5,54.9,48.8,90,87,79,29.99,29.90,1,0,7,0.02
2013-10-20,69.4,53.3,42.4,49.3,45.4,40.0,91,76,47,30.13,29.97,1,0,6,0.00
2013-10-21,69.6,55.5,46.3,54.6,49.1,43.0,90,80,57,30.19,30.05,2,0,5,0.00
2013-10-22,65.3,57.8,53.8,55.9,52.6,49.8,90,84,59,30.07,29.85,1,0,5,0.00
2013-10-23,63.9,52.2,39.3,51.3,40.1,31.6,91,67,31,30.09,29.79,7,1,12,0.00
2013-10-24,63.0,46.4,33.9,41.1,36.0,31.3,91,70,39,30.23,30.09,2,0,7,0.00
2013-10-25,54.7,42.7,34.9,38.6,31.0,27.1,90,66,37,30.43,30.22,1,0,6,0.00
2013-10-26,57.8,42.6,29.0,37.3,31.7,25.9,90,67,40,30.42,30.16,5,0,7,0.00
2013-10-27,70.4,53.0,38.7,51.9,43.8,35.2,90,73,46,30.19,30.10,2,0,5,0.00
2013-10-28,64.6,56.4,50.4,57.1,51.8,47.6,90,85,69,30.30,30.15,2,0,5,0.08
2013-10-29,70.8,58.0,48.5,54.5,50.7,44.9,90,78,53,30.37,30.27,2,0,5,0.00
2013-10-30,78.2,62.0,52.5,58.6,54.4,49.4,90,78,51,30.33,30.19,3,0,7,0.00
2013-10-31,58.5,55.3,53.7,54.6,52.2,50.5,90,89,88,30.21,30.17,0,0,1,0.00
2013-11-1,66.9,62.6,57.2,61.5,58.5,53.7,90,87,78,29.92,29.71,2,0,12,0.20
2013-11-2,67.6,54.3,45.0,53.7,45.0,35.6,91,74,37,30.04,29.77,4,0,13,0.00
2013-11-3,63.5,49.4,40.3,39.8,37.6,33.9,87,67,37,30.40,30.04,5,0,6,0.00
2013-11-4,58.5,47.1,39.9,36.7,34.6,32.7,80,63,42,30.56,30.40,3,0,10,0.00
2013-11-5,57.4,46.6,37.4,46.0,38.1,29.9,87,73,57,30.59,30.46,5,1,9,0.00
2013-11-6,69.0,56.0,49.3,54.2,49.3,46.0,90,79,59,30.46,30.23,2,0,5,0.00
2013-11-7,71.0,57.4,49.8,59.7,50.8,37.8,90,80,48,30.17,30.00,2,0,4,0.01
2013-11-8,61.1,47.9,40.3,32.7,27.5,23.8,63,47,25,30.35,30.18,1,0,8,0.00
2013-11-9,59.8,45.4,34.4,36.4,30.0,24.8,77,56,31,30.42,30.27,1,0,5,0.00
2013-11-10,71.7,53.6,40.9,42.3,36.0,31.2,82,56,26,30.29,30.18,1,0,4,0.00
2013-11-11,63.5,48.8,39.8,34.4,30.2,26.6,76,50,27,30.39,30.20,2,0,9,0.00
2013-11-12,68.8,44.2,27.3,40.1,30.4,13.7,87,60,30,30.51,30.10,2,0,9,0.00
2013-11-13,50.6,34.0,23.0,19.9,15.3,12.0,72,49,23,30.62,30.50,3,0,4,0.00
2013-11-14,58.1,38.5,23.6,25.0,20.9,17.0,86,54,21,30.55,30.39,2,0,5,0.00
2013-11-15,56.4,45.0,32.5,45.2,34.4,23.0,90,68,37,30.40,30.24,1,0,3,0.14
2013-11-16,65.2,53.7,46.8,55.5,49.1,43.6,91,85,68,30.31,30.22,2,0,6,0.00
2013-11-17,63.4,57.7,53.4,57.9,53.9,50.5,90,87,81,30.24,29.95,1,0,3,0.76
2013-11-18,60.7,59.8,58.5,56.5,55.6,54.1,87,86,86,29.95,29.89,1,0,3,0.02
2013-11-19,57.7,47.1,39.5,33.3,27.7,24.9,72,48,30,30.27,30.01,1,0,7,0.00
2013-11-20,52.2,43.6,35.3,32.0,29.2,27.0,73,57,41,30.48,30.28,5,1,9,0.00
2013-11-21,49.9,45.5,42.6,43.7,38.4,31.2,90,77,62,30.50,30.42,3,0,5,0.08
2013-11-22,58.3,53.3,47.2,55.0,50.1,43.8,90,89,88,30.43,30.17,2,0,3,0.00
2013-11-23,58.7,52.2,38.6,53.7,42.4,24.0,91,70,45,30.24,30.11,1,0,3,0.00
2013-11-24,42.8,32.7,27.1,25.5,14.7,8.6,59,48,29,30.58,30.24,2,0,9,0.00
2013-11-25,41.7,32.2,22.7,14.6,10.4,6.8,57,41,26,30.62,30.38,2,0,7,0.00
2013-11-26,44.1,36.7,29.5,40.8,33.1,14.6,91,87,46,30.38,29.69,4,1,9,1.86
2013-11-27,46.0,36.3,25.5,41.3,29.8,17.4,92,78,53,30.28,29.61,1,0,5,0.20
2013-11-28,45.2,28.7,19.6,24.4,19.6,16.1,87,71,40,30.55,30.28,2,0,5,0.00
2013-11-29,55.8,38.4,24.5,28.0,24.6,21.4,91,63,29,30.63,30.52,1,0,9,0.00
2013-11-30,48.5,37.0,29.9,26.5,23.5,22.0,74,59,39,30.68,30.44,3,0,10,0.00
2013-12-1,55.1,41.1,31.8,39.7,31.4,23.8,91,70,43,30.43,30.07,3,0,4,0.00
2013-12-2,59.1,43.2,31.5,44.6,36.9,29.2,91,80,49,30.07,29.87,1,0,4,0.00
2013-12-3,54.8,50.7,47.5,50.5,47.3,44.1,90,88,85,29.99,29.91,0,0,4,0.36
2013-12-4,59.4,55.1,51.6,55.2,51.4,47.9,88,87,86,30.11,29.98,1,0,3,0.09
2013-12-5,66.0,62.4,58.6,62.5,58.4,54.4,90,87,85,30.13,30.03,6,1,8,0.29
2013-12-6,72.2,66.8,64.3,64.0,62.3,61.3,90,86,72,30.08,29.99,6,2,10,0.05
2013-12-7,64.3,54.8,46.9,59.7,49.3,41.2,91,82,70,30.39,30.01,5,1,11,0.16
2013-12-8,46.9,37.8,34.0,41.4,35.2,31.6,92,90,84,30.42,30.32,4,1,8,0.32
2013-12-9,43.2,37.9,33.9,40.2,35.0,31.3,91,89,88,30.32,30.10,1,0,3,0.85
2013-12-10,57.0,44.9,32.5,50.4,37.2,22.1,91,75,49,30.36,29.97,5,0,10,0.16
2013-12-11,51.8,36.5,25.0,28.7,25.4,22.0,90,67,36,30.50,30.35,3,0,5,0.00
2013-12-12,51.5,36.3,27.2,27.1,19.8,10.8,89,55,27,30.47,30.36,3,0,5,0.00
2013-12-13,51.8,37.6,23.9,31.1,22.7,12.8,82,57,33,30.44,30.31,3,0,5,0.00
2013-12-14,40.5,40.2,39.6,29.0,28.5,28.0,65,63,61,30.33,30.20,1,0,2,0.00
2013-12-15,52.6,42.3,29.7,42.1,36.0,26.3,91,79,57,30.17,29.81,1,0,9,0.01
2013-12-16,57.5,40.5,26.4,33.5,28.7,24.1,91,67,31,30.25,30.16,2,0,12,0.00
2013-12-17,60.9,47.0,34.0,35.9,32.2,28.5,81,58,39,30.22,30.02,3,1,13,0.00
2013-12-18,53.3,40.8,29.5,26.5,20.6,17.9,69,46,26,30.34,30.11,2,0,10,0.00
2013-12-19,59.6,42.7,27.2,28.5,24.5,19.6,84,53,21,30.40,30.28,2,0,6,0.00
2013-12-20,56.6,45.3,37.2,44.8,36.1,28.4,86,71,57,30.30,30.20,2,0,4,0.00
2013-12-21,64.4,55.6,48.1,60.1,51.6,43.5,90,87,83,30.20,30.03,2,0,5,0.00
2013-12-22,67.2,61.9,57.6,63.1,58.1,53.8,90,87,86,30.07,30.00,5,1,10,1.39
2013-12-23,57.6,52.4,43.2,53.7,48.6,35.8,91,87,75,30.20,30.02,1,0,4,0.24
2013-12-24,49.4,37.5,25.9,34.7,25.8,15.9,86,63,43,30.48,30.20,4,0,5,0.00
2013-12-25,40.7,30.4,22.2,19.4,14.1,10.0,70,52,31,30.60,30.45,3,0,7,0.00
2013-12-26,54.8,37.5,25.2,27.9,22.5,17.7,79,57,31,30.46,30.31,2,0,4,0.00
2013-12-27,51.0,38.2,30.4,25.7,23.3,19.0,80,57,31,30.53,30.40,1,0,5,0.00
2013-12-28,47.5,36.6,26.1,37.0,29.2,23.0,90,76,49,30.47,30.16,0,0,5,0.40
2013-12-29,57.9,44.7,37.5,50.6,41.0,34.8,91,87,73,30.16,29.86,4,1,7,1.00
2013-12-30,51.5,42.6,35.1,42.0,37.7,32.5,91,83,65,30.18,30.01,2,0,6,0.00
2013-12-31,52.1,39.9,33.7,36.6,30.3,23.5,91,71,38,30.42,30.18,3,0,4,0.00
2014-1-1,48.5,38.2,30.0,33.8,29.2,25.3,86,71,48,30.44,30.20,1,0,3,0.00
2014-1-2,44.1,40.0,28.6,41.2,35.3,18.3,91,84,61,30.20,29.73,7,1,12,0.20